sensor_id;sensor_type;location;lat;lon;timestamp;pressure;altitude;pressure_sealevel;temperature;humidity
60489;BME280;46331;49.252;8.904;2023-02-17T00:00:22;100594.00;;;8.74;81.17
60489;BME280;46331;49.252;8.904;2023-02-17T00:01:13;100589.94;;;8.71;80.68
60489;BME280;46331;49.252;8.904;2023-02-17T00:01:54;100591.16;;;8.75;80.49
60489;BME280;46331;49.252;8.904;2023-02-17T00:02:34;100590.97;;;8.77;79.84
60489;BME280;46331;49.252;8.904;2023-02-17T00:03:15;100584.88;;;8.76;79.70
60489;BME280;46331;49.252;8.904;2023-02-17T00:03:56;100586.47;;;8.77;80.58
60489;BME280;46331;49.252;8.904;2023-02-17T00:04:36;100586.25;;;8.79;81.08
60489;BME280;46331;49.252;8.904;2023-02-17T00:05:17;100580.78;;;8.81;81.41
60489;BME280;46331;49.252;8.904;2023-02-17T00:05:57;100583.63;;;8.79;81.90
60489;BME280;46331;49.252;8.904;2023-02-17T00:06:38;100584.25;;;8.81;81.21
60489;BME280;46331;49.252;8.904;2023-02-17T00:07:18;100569.59;;;8.79;80.26
60489;BME280;46331;49.252;8.904;2023-02-17T00:07:59;100579.97;;;8.80;79.55
60489;BME280;46331;49.252;8.904;2023-02-17T00:08:39;100576.09;;;8.76;81.91
60489;BME280;46331;49.252;8.904;2023-02-17T00:09:20;100577.34;;;8.73;81.59
60489;BME280;46331;49.252;8.904;2023-02-17T00:10:01;100570.63;;;8.71;82.49
60489;BME280;46331;49.252;8.904;2023-02-17T00:10:41;100578.75;;;8.69;81.90
60489;BME280;46331;49.252;8.904;2023-02-17T00:11:22;100577.94;;;8.69;80.90
60489;BME280;46331;49.252;8.904;2023-02-17T00:12:03;100572.88;;;8.67;79.73
60489;BME280;46331;49.252;8.904;2023-02-17T00:12:44;100576.91;;;8.70;80.30
60489;BME280;46331;49.252;8.904;2023-02-17T00:13:25;100580.59;;;8.69;80.17
60489;BME280;46331;49.252;8.904;2023-02-17T00:14:06;100579.56;;;8.70;80.84
60489;BME280;46331;49.252;8.904;2023-02-17T00:14:47;100583.22;;;8.69;79.92
60489;BME280;46331;49.252;8.904;2023-02-17T00:15:27;100578.75;;;8.69;80.35
60489;BME280;46331;49.252;8.904;2023-02-17T00:16:10;100581.19;;;8.71;80.90
60489;BME280;46331;49.252;8.904;2023-02-17T00:16:51;100569.38;;;8.67;79.69
60489;BME280;46331;49.252;8.904;2023-02-17T00:17:32;100575.31;;;8.69;77.89
60489;BME280;46331;49.252;8.904;2023-02-17T00:18:12;100576.28;;;8.74;77.38
60489;BME280;46331;49.252;8.904;2023-02-17T00:18:59;100574.88;;;8.79;77.61
60489;BME280;46331;49.252;8.904;2023-02-17T00:19:40;100569.59;;;8.79;77.01
60489;BME280;46331;49.252;8.904;2023-02-17T00:20:20;100572.84;;;8.81;77.22
60489;BME280;46331;49.252;8.904;2023-02-17T00:21:13;100569.78;;;8.84;77.27
60489;BME280;46331;49.252;8.904;2023-02-17T00:21:59;100564.91;;;8.87;74.66
60489;BME280;46331;49.252;8.904;2023-02-17T00:22:39;100553.09;;;8.90;75.91
60489;BME280;46331;49.252;8.904;2023-02-17T00:23:20;100565.31;;;8.91;75.76
60489;BME280;46331;49.252;8.904;2023-02-17T00:24:01;100565.09;;;8.92;75.32
60489;BME280;46331;49.252;8.904;2023-02-17T00:24:41;100569.38;;;8.93;75.33
60489;BME280;46331;49.252;8.904;2023-02-17T00:25:22;100567.34;;;8.95;75.89
60489;BME280;46331;49.252;8.904;2023-02-17T00:26:06;100562.66;;;8.98;76.05
60489;BME280;46331;49.252;8.904;2023-02-17T00:26:47;100561.25;;;8.95;76.02
60489;BME280;46331;49.252;8.904;2023-02-17T00:27:28;100566.13;;;8.98;76.02
60489;BME280;46331;49.252;8.904;2023-02-17T00:28:08;100566.13;;;8.98;75.86
60489;BME280;46331;49.252;8.904;2023-02-17T00:28:49;100567.31;;;9.02;75.01
60489;BME280;46331;49.252;8.904;2023-02-17T00:29:30;100564.25;;;9.05;75.05
60489;BME280;46331;49.252;8.904;2023-02-17T00:30:12;100571.59;;;9.10;74.67
60489;BME280;46331;49.252;8.904;2023-02-17T00:30:53;100564.88;;;9.14;74.48
60489;BME280;46331;49.252;8.904;2023-02-17T00:31:33;100559.97;;;9.18;73.61
60489;BME280;46331;49.252;8.904;2023-02-17T00:32:14;100564.63;;;9.22;73.34
60489;BME280;46331;49.252;8.904;2023-02-17T00:32:56;100559.56;;;9.27;72.92
60489;BME280;46331;49.252;8.904;2023-02-17T00:33:36;100567.09;;;9.30;72.95
60489;BME280;46331;49.252;8.904;2023-02-17T00:34:18;100560.75;;;9.31;72.43
60489;BME280;46331;49.252;8.904;2023-02-17T00:34:59;100567.06;;;9.37;72.32
60489;BME280;46331;49.252;8.904;2023-02-17T00:35:40;100569.50;;;9.39;72.23
60489;BME280;46331;49.252;8.904;2023-02-17T00:36:22;100566.22;;;9.43;71.82
60489;BME280;46331;49.252;8.904;2023-02-17T00:37:03;100559.91;;;9.44;71.68
60489;BME280;46331;49.252;8.904;2023-02-17T00:37:46;100570.09;;;9.47;71.91
60489;BME280;46331;49.252;8.904;2023-02-17T00:38:27;100564.38;;;9.51;72.88
60489;BME280;46331;49.252;8.904;2023-02-17T00:39:11;100564.97;;;9.53;72.40
60489;BME280;46331;49.252;8.904;2023-02-17T00:39:53;100563.53;;;9.57;72.72
60489;BME280;46331;49.252;8.904;2023-02-17T00:40:34;100556.81;;;9.54;72.49
60489;BME280;46331;49.252;8.904;2023-02-17T00:41:16;100569.63;;;9.57;72.56
60489;BME280;46331;49.252;8.904;2023-02-17T00:41:57;100564.13;;;9.59;72.07
60489;BME280;46331;49.252;8.904;2023-02-17T00:42:38;100562.28;;;9.59;71.93
60489;BME280;46331;49.252;8.904;2023-02-17T00:43:18;100557.63;;;9.61;71.55
60489;BME280;46331;49.252;8.904;2023-02-17T00:44:00;100560.84;;;9.63;71.07
60489;BME280;46331;49.252;8.904;2023-02-17T00:44:40;100559.84;;;9.64;71.59
60489;BME280;46331;49.252;8.904;2023-02-17T00:45:21;100556.78;;;9.68;70.88
60489;BME280;46331;49.252;8.904;2023-02-17T00:46:01;100553.91;;;9.69;70.20
60489;BME280;46331;49.252;8.904;2023-02-17T00:46:44;100562.47;;;9.71;70.57
60489;BME280;46331;49.252;8.904;2023-02-17T00:47:24;100566.94;;;9.71;69.43
60489;BME280;46331;49.252;8.904;2023-02-17T00:48:05;100564.47;;;9.76;70.42
60489;BME280;46331;49.252;8.904;2023-02-17T00:48:47;100561.81;;;9.76;70.67
60489;BME280;46331;49.252;8.904;2023-02-17T00:49:27;100554.69;;;9.76;71.01
60489;BME280;46331;49.252;8.904;2023-02-17T00:50:08;100566.69;;;9.79;70.65
60489;BME280;46331;49.252;8.904;2023-02-17T00:50:49;100568.53;;;9.78;71.07
60489;BME280;46331;49.252;8.904;2023-02-17T00:51:30;100558.16;;;9.77;70.18
60489;BME280;46331;49.252;8.904;2023-02-17T00:52:10;100566.69;;;9.79;69.44
60489;BME280;46331;49.252;8.904;2023-02-17T00:52:51;100571.56;;;9.82;71.86
60489;BME280;46331;49.252;8.904;2023-02-17T00:53:31;100564.06;;;9.79;72.14
60489;BME280;46331;49.252;8.904;2023-02-17T00:54:14;100564.25;;;9.77;71.61
60489;BME280;46331;49.252;8.904;2023-02-17T00:54:55;100559.00;;;9.71;71.29
60489;BME280;46331;49.252;8.904;2023-02-17T00:55:36;100559.81;;;9.71;70.03
60489;BME280;46331;49.252;8.904;2023-02-17T00:56:16;100564.31;;;9.71;70.34
60489;BME280;46331;49.252;8.904;2023-02-17T00:56:57;100564.31;;;9.71;70.39
60489;BME280;46331;49.252;8.904;2023-02-17T00:57:38;100563.47;;;9.70;71.13
60489;BME280;46331;49.252;8.904;2023-02-17T00:58:19;100567.16;;;9.69;71.12
60489;BME280;46331;49.252;8.904;2023-02-17T00:58:59;100561.25;;;9.67;71.41
60489;BME280;46331;49.252;8.904;2023-02-17T00:59:40;100567.97;;;9.70;71.19
60489;BME280;46331;49.252;8.904;2023-02-17T01:00:21;100562.66;;;9.70;70.89
60489;BME280;46331;49.252;8.904;2023-02-17T01:01:02;100565.31;;;9.70;71.20
60489;BME280;46331;49.252;8.904;2023-02-17T01:01:44;100566.31;;;9.69;70.84
60489;BME280;46331;49.252;8.904;2023-02-17T01:02:25;100561.44;;;9.72;70.82
60489;BME280;46331;49.252;8.904;2023-02-17T01:03:06;100566.13;;;9.70;70.31
60489;BME280;46331;49.252;8.904;2023-02-17T01:03:47;100556.34;;;9.71;70.97
60489;BME280;46331;49.252;8.904;2023-02-17T01:04:28;100560.59;;;9.72;70.63
60489;BME280;46331;49.252;8.904;2023-02-17T01:05:08;100555.72;;;9.75;70.01
60489;BME280;46331;49.252;8.904;2023-02-17T01:05:49;100559.38;;;9.74;70.59
60489;BME280;46331;49.252;8.904;2023-02-17T01:06:33;100563.47;;;9.77;70.42
60489;BME280;46331;49.252;8.904;2023-02-17T01:07:14;100560.59;;;9.78;69.72
60489;BME280;46331;49.252;8.904;2023-02-17T01:07:55;100564.25;;;9.77;69.61
60489;BME280;46331;49.252;8.904;2023-02-17T01:08:35;100564.84;;;9.79;69.57
60489;BME280;46331;49.252;8.904;2023-02-17T01:09:16;100567.28;;;9.81;69.76
60489;BME280;46331;49.252;8.904;2023-02-17T01:09:56;100569.53;;;9.84;69.29
60489;BME280;46331;49.252;8.904;2023-02-17T01:10:41;100561.78;;;9.82;69.72
60489;BME280;46331;49.252;8.904;2023-02-17T01:11:27;100561.34;;;9.85;69.36
60489;BME280;46331;49.252;8.904;2023-02-17T01:12:11;100561.16;;;9.87;69.65
60489;BME280;46331;49.252;8.904;2023-02-17T01:12:52;100562.78;;;9.88;69.15
60489;BME280;46331;49.252;8.904;2023-02-17T01:13:35;100562.56;;;9.90;69.60
60489;BME280;46331;49.252;8.904;2023-02-17T01:14:16;100561.34;;;9.92;69.12
60489;BME280;46331;49.252;8.904;2023-02-17T01:14:56;100564.00;;;9.92;68.82
60489;BME280;46331;49.252;8.904;2023-02-17T01:15:39;100568.25;;;9.93;68.85
60489;BME280;46331;49.252;8.904;2023-02-17T01:16:28;100567.44;;;9.93;68.01
60489;BME280;46331;49.252;8.904;2023-02-17T01:17:12;100565.00;;;9.91;68.39
60489;BME280;46331;49.252;8.904;2023-02-17T01:17:53;100570.91;;;9.93;68.21
60489;BME280;46331;49.252;8.904;2023-02-17T01:18:35;100564.16;;;9.97;68.08
60489;BME280;46331;49.252;8.904;2023-02-17T01:19:18;100568.66;;;9.97;68.24
60489;BME280;46331;49.252;8.904;2023-02-17T01:20:02;100572.28;;;10.02;67.79
60489;BME280;46331;49.252;8.904;2023-02-17T01:20:42;100565.53;;;10.07;67.98
60489;BME280;46331;49.252;8.904;2023-02-17T01:21:25;100569.81;;;10.08;67.61
60489;BME280;46331;49.252;8.904;2023-02-17T01:22:06;100566.13;;;10.09;68.08
60489;BME280;46331;49.252;8.904;2023-02-17T01:22:46;100562.69;;;10.08;67.42
60489;BME280;46331;49.252;8.904;2023-02-17T01:23:27;100559.81;;;10.10;67.94
60489;BME280;46331;49.252;8.904;2023-02-17T01:24:08;100561.88;;;10.08;67.67
60489;BME280;46331;49.252;8.904;2023-02-17T01:24:49;100558.19;;;10.09;67.66
60489;BME280;46331;49.252;8.904;2023-02-17T01:25:30;100558.81;;;10.04;67.83
60489;BME280;46331;49.252;8.904;2023-02-17T01:26:15;100551.50;;;10.06;67.37
60489;BME280;46331;49.252;8.904;2023-02-17T01:26:56;100550.44;;;10.07;66.92
60489;BME280;46331;49.252;8.904;2023-02-17T01:27:40;100565.38;;;10.01;67.42
60489;BME280;46331;49.252;8.904;2023-02-17T01:28:20;100561.03;;;10.07;66.99
60489;BME280;46331;49.252;8.904;2023-02-17T01:29:02;100556.75;;;10.13;66.65
60489;BME280;46331;49.252;8.904;2023-02-17T01:29:44;100559.38;;;10.13;67.63
60489;BME280;46331;49.252;8.904;2023-02-17T01:30:25;100552.22;;;10.20;67.13
60489;BME280;46331;49.252;8.904;2023-02-17T01:31:07;100546.50;;;10.16;66.76
60489;BME280;46331;49.252;8.904;2023-02-17T01:31:47;100546.91;;;10.20;65.68
60489;BME280;46331;49.252;8.904;2023-02-17T01:32:28;100556.91;;;10.18;65.82
60489;BME280;46331;49.252;8.904;2023-02-17T01:33:09;100553.66;;;10.16;65.61
60489;BME280;46331;49.252;8.904;2023-02-17T01:33:49;100541.94;;;10.30;64.15
60489;BME280;46331;49.252;8.904;2023-02-17T01:34:30;100545.38;;;10.37;64.95
60489;BME280;46331;49.252;8.904;2023-02-17T01:35:10;100543.09;;;10.41;65.32
60489;BME280;46331;49.252;8.904;2023-02-17T01:35:51;100548.81;;;10.45;65.29
60489;BME280;46331;49.252;8.904;2023-02-17T01:36:32;100544.09;;;10.47;64.39
60489;BME280;46331;49.252;8.904;2023-02-17T01:37:13;100545.50;;;10.49;64.95
60489;BME280;46331;49.252;8.904;2023-02-17T01:37:53;100534.06;;;10.49;64.92
60489;BME280;46331;49.252;8.904;2023-02-17T01:38:35;100539.16;;;10.50;64.85
60489;BME280;46331;49.252;8.904;2023-02-17T01:39:16;100539.38;;;10.49;65.39
60489;BME280;46331;49.252;8.904;2023-02-17T01:39:59;100542.25;;;10.47;64.85
60489;BME280;46331;49.252;8.904;2023-02-17T01:40:47;100541.88;;;10.44;64.75
60489;BME280;46331;49.252;8.904;2023-02-17T01:41:28;100545.13;;;10.46;65.15
60489;BME280;46331;49.252;8.904;2023-02-17T01:42:15;100543.06;;;10.48;65.19
60489;BME280;46331;49.252;8.904;2023-02-17T01:42:56;100545.34;;;10.44;65.62
60489;BME280;46331;49.252;8.904;2023-02-17T01:43:36;100543.31;;;10.40;65.13
60489;BME280;46331;49.252;8.904;2023-02-17T01:44:19;100541.06;;;10.43;64.87
60489;BME280;46331;49.252;8.904;2023-02-17T01:46:01;100543.28;;;10.46;64.93
60489;BME280;46331;49.252;8.904;2023-02-17T01:46:44;100541.50;;;10.40;65.71
60489;BME280;46331;49.252;8.904;2023-02-17T01:47:25;100539.06;;;10.32;65.40
60489;BME280;46331;49.252;8.904;2023-02-17T01:48:13;100543.97;;;10.35;63.92
60489;BME280;46331;49.252;8.904;2023-02-17T01:48:56;100541.06;;;10.43;65.11
60489;BME280;46331;49.252;8.904;2023-02-17T01:49:39;100542.25;;;10.47;64.59
60489;BME280;46331;49.252;8.904;2023-02-17T01:50:24;100544.31;;;10.45;64.83
60489;BME280;46331;49.252;8.904;2023-02-17T01:51:27;100544.25;;;10.52;65.09
60489;BME280;46331;49.252;8.904;2023-02-17T01:52:19;100531.41;;;10.49;64.55
60489;BME280;46331;49.252;8.904;2023-02-17T01:53:02;100543.22;;;10.53;64.56
60489;BME280;46331;49.252;8.904;2023-02-17T01:54:41;100543.88;;;10.48;65.13
60489;BME280;46331;49.252;8.904;2023-02-17T01:55:24;100536.94;;;10.47;65.18
60489;BME280;46331;49.252;8.904;2023-02-17T01:56:06;100542.31;;;10.41;65.57
60489;BME280;46331;49.252;8.904;2023-02-17T01:56:49;100541.88;;;10.44;64.97
60489;BME280;46331;49.252;8.904;2023-02-17T01:57:31;100543.72;;;10.43;64.69
60489;BME280;46331;49.252;8.904;2023-02-17T01:58:17;100541.00;;;10.50;64.46
60489;BME280;46331;49.252;8.904;2023-02-17T01:59:02;100541.44;;;10.47;65.35
60489;BME280;46331;49.252;8.904;2023-02-17T01:59:44;100541.00;;;10.50;64.28
60489;BME280;46331;49.252;8.904;2023-02-17T02:00:27;100538.56;;;10.48;64.60
60489;BME280;46331;49.252;8.904;2023-02-17T02:01:08;100534.41;;;10.59;64.55
60489;BME280;46331;49.252;8.904;2023-02-17T02:01:52;100542.34;;;10.66;64.28
60489;BME280;46331;49.252;8.904;2023-02-17T02:02:34;100534.38;;;10.66;64.87
60489;BME280;46331;49.252;8.904;2023-02-17T02:03:15;100531.94;;;10.64;65.08
60489;BME280;46331;49.252;8.904;2023-02-17T02:03:57;100526.03;;;10.62;64.47
60489;BME280;46331;49.252;8.904;2023-02-17T02:04:40;100526.88;;;10.56;65.27
60489;BME280;46331;49.252;8.904;2023-02-17T02:05:22;100525.06;;;10.57;65.38
60489;BME280;46331;49.252;8.904;2023-02-17T02:06:08;100526.34;;;10.47;65.46
60489;BME280;46331;49.252;8.904;2023-02-17T02:06:50;100521.03;;;10.47;66.12
60489;BME280;46331;49.252;8.904;2023-02-17T02:07:34;100519.78;;;10.50;66.06
60489;BME280;46331;49.252;8.904;2023-02-17T02:08:15;100516.88;;;10.58;66.13
60489;BME280;46331;49.252;8.904;2023-02-17T02:09:10;100529.09;;;10.59;66.16
60489;BME280;46331;49.252;8.904;2023-02-17T02:09:54;100524.78;;;10.65;65.98
60489;BME280;46331;49.252;8.904;2023-02-17T02:10:35;100516.69;;;10.60;66.17
60489;BME280;46331;49.252;8.904;2023-02-17T02:11:18;100519.19;;;10.73;66.29
60489;BME280;46331;49.252;8.904;2023-02-17T02:12:02;100514.31;;;10.70;66.82
60489;BME280;46331;49.252;8.904;2023-02-17T02:12:58;100519.16;;;10.80;66.39
60489;BME280;46331;49.252;8.904;2023-02-17T02:13:39;100506.03;;;10.85;66.44
60489;BME280;46331;49.252;8.904;2023-02-17T02:14:20;100505.00;;;10.86;66.49
60489;BME280;46331;49.252;8.904;2023-02-17T02:15:06;100510.56;;;10.78;67.49
60489;BME280;46331;49.252;8.904;2023-02-17T02:16:00;100514.94;;;10.72;67.42
60489;BME280;46331;49.252;8.904;2023-02-17T02:22:29;100502.63;;;10.96;67.94
60489;BME280;46331;49.252;8.904;2023-02-17T02:27:33;100500.38;;;11.00;67.39
60489;BME280;46331;49.252;8.904;2023-02-17T02:30:12;100493.06;;;10.95;67.43
60489;BME280;46331;49.252;8.904;2023-02-17T02:32:19;100500.59;;;10.98;67.65
60489;BME280;46331;49.252;8.904;2023-02-17T02:34:36;100495.28;;;10.98;67.74
60489;BME280;46331;49.252;8.904;2023-02-17T02:36:45;100482.91;;;10.92;66.79
60489;BME280;46331;49.252;8.904;2023-02-17T02:37:34;100494.75;;;10.89;67.02
60489;BME280;46331;49.252;8.904;2023-02-17T02:38:42;100489.59;;;10.95;66.37
60489;BME280;46331;49.252;8.904;2023-02-17T02:39:33;100499.41;;;10.94;66.99
60489;BME280;46331;49.252;8.904;2023-02-17T02:40:19;100486.94;;;10.95;66.43
60489;BME280;46331;49.252;8.904;2023-02-17T02:41:16;100488.19;;;10.92;66.83
60489;BME280;46331;49.252;8.904;2023-02-17T02:42:07;100490.78;;;10.99;66.99
60489;BME280;46331;49.252;8.904;2023-02-17T02:42:49;100491.00;;;10.97;66.42
60489;BME280;46331;49.252;8.904;2023-02-17T02:43:30;100487.31;;;10.98;66.58
60489;BME280;46331;49.252;8.904;2023-02-17T02:44:13;100479.63;;;10.90;67.22
60489;BME280;46331;49.252;8.904;2023-02-17T02:44:54;100480.97;;;10.99;65.99
60489;BME280;46331;49.252;8.904;2023-02-17T02:45:35;100480.25;;;10.92;66.32
60489;BME280;46331;49.252;8.904;2023-02-17T02:46:16;100481.13;;;10.86;66.40
60489;BME280;46331;49.252;8.904;2023-02-17T02:46:57;100481.78;;;10.81;66.61
60489;BME280;46331;49.252;8.904;2023-02-17T02:48:22;100487.22;;;10.86;66.16
60489;BME280;46331;49.252;8.904;2023-02-17T02:49:03;100481.56;;;10.83;66.17
60489;BME280;46331;49.252;8.904;2023-02-17T02:49:44;100482.44;;;10.95;66.06
60489;BME280;46331;49.252;8.904;2023-02-17T02:50:58;100490.84;;;10.92;66.11
60489;BME280;46331;49.252;8.904;2023-02-17T02:51:55;100482.44;;;10.95;66.15
60489;BME280;46331;49.252;8.904;2023-02-17T02:53:05;100488.13;;;10.99;66.69
60489;BME280;46331;49.252;8.904;2023-02-17T02:54:50;100492.84;;;10.78;66.43
60489;BME280;46331;49.252;8.904;2023-02-17T02:57:25;100491.34;;;10.82;66.44
60489;BME280;46331;49.252;8.904;2023-02-17T03:00:31;100487.53;;;10.78;66.09
60489;BME280;46331;49.252;8.904;2023-02-17T03:02:52;100488.69;;;10.82;66.68
60489;BME280;46331;49.252;8.904;2023-02-17T03:04:43;100486.91;;;10.76;66.96
60489;BME280;46331;49.252;8.904;2023-02-17T03:05:31;100494.59;;;10.66;67.04
60489;BME280;46331;49.252;8.904;2023-02-17T03:06:29;100476.38;;;10.69;67.56
60489;BME280;46331;49.252;8.904;2023-02-17T03:07:14;100485.53;;;10.73;67.33
60489;BME280;46331;49.252;8.904;2023-02-17T03:08:07;100486.66;;;10.59;67.47
60489;BME280;46331;49.252;8.904;2023-02-17T03:08:56;100483.75;;;10.67;67.49
60489;BME280;46331;49.252;8.904;2023-02-17T03:09:40;100488.63;;;10.70;67.94
60489;BME280;46331;49.252;8.904;2023-02-17T03:10:20;100487.56;;;10.71;67.99
60489;BME280;46331;49.252;8.904;2023-02-17T03:11:01;100475.72;;;10.74;67.86
60489;BME280;46331;49.252;8.904;2023-02-17T03:11:46;100477.06;;;10.83;68.08
60489;BME280;46331;49.252;8.904;2023-02-17T03:12:28;100484.03;;;10.78;67.82
60489;BME280;46331;49.252;8.904;2023-02-17T03:13:09;100476.59;;;10.68;68.46
60489;BME280;46331;49.252;8.904;2023-02-17T03:13:51;100480.59;;;10.77;68.72
60489;BME280;46331;49.252;8.904;2023-02-17T03:14:35;100472.53;;;10.65;69.60
60489;BME280;46331;49.252;8.904;2023-02-17T03:15:27;100478.59;;;10.72;68.87
60489;BME280;46331;49.252;8.904;2023-02-17T03:16:08;100470.06;;;10.70;69.49
60489;BME280;46331;49.252;8.904;2023-02-17T03:16:51;100470.34;;;10.81;69.69
60489;BME280;46331;49.252;8.904;2023-02-17T03:17:32;100473.38;;;10.84;69.67
60489;BME280;46331;49.252;8.904;2023-02-17T03:18:13;100469.91;;;10.84;69.55
60489;BME280;46331;49.252;8.904;2023-02-17T03:18:54;100467.91;;;10.79;69.65
60489;BME280;46331;49.252;8.904;2023-02-17T03:19:35;100477.63;;;10.67;70.14
60489;BME280;46331;49.252;8.904;2023-02-17T03:20:16;100473.50;;;10.71;70.22
60489;BME280;46331;49.252;8.904;2023-02-17T03:21:02;100475.06;;;10.79;70.46
60489;BME280;46331;49.252;8.904;2023-02-17T03:21:50;100481.03;;;10.74;70.30
60489;BME280;46331;49.252;8.904;2023-02-17T03:22:37;100476.91;;;10.78;70.81
60489;BME280;46331;49.252;8.904;2023-02-17T03:23:20;100477.63;;;10.67;70.82
60489;BME280;46331;49.252;8.904;2023-02-17T03:24:01;100469.66;;;10.67;71.34
60489;BME280;46331;49.252;8.904;2023-02-17T03:24:42;100480.06;;;10.68;71.74
60489;BME280;46331;49.252;8.904;2023-02-17T03:25:22;100468.06;;;10.66;71.92
60489;BME280;46331;49.252;8.904;2023-02-17T03:26:03;100471.22;;;10.74;71.72
60489;BME280;46331;49.252;8.904;2023-02-17T03:26:44;100479.41;;;10.73;71.77
60489;BME280;46331;49.252;8.904;2023-02-17T03:27:24;100473.88;;;10.74;71.82
60489;BME280;46331;49.252;8.904;2023-02-17T03:28:05;100475.13;;;10.72;72.15
60489;BME280;46331;49.252;8.904;2023-02-17T03:28:45;100461.22;;;10.77;71.62
60489;BME280;46331;49.252;8.904;2023-02-17T03:29:26;100468.34;;;10.76;71.99
60489;BME280;46331;49.252;8.904;2023-02-17T03:30:08;100468.72;;;10.80;71.50
60489;BME280;46331;49.252;8.904;2023-02-17T03:30:49;100470.13;;;10.82;71.79
60489;BME280;46331;49.252;8.904;2023-02-17T03:31:30;100471.59;;;10.78;72.23
60489;BME280;46331;49.252;8.904;2023-02-17T03:32:10;100468.72;;;10.80;72.17
60489;BME280;46331;49.252;8.904;2023-02-17T03:32:51;100476.75;;;10.73;72.68
60489;BME280;46331;49.252;8.904;2023-02-17T03:33:32;100466.31;;;10.78;72.50
60489;BME280;46331;49.252;8.904;2023-02-17T03:34:12;100478.06;;;10.82;71.90
60489;BME280;46331;49.252;8.904;2023-02-17T03:34:53;100474.31;;;10.71;72.70
60489;BME280;46331;49.252;8.904;2023-02-17T03:35:33;100486.19;;;10.69;72.68
60489;BME280;46331;49.252;8.904;2023-02-17T03:36:14;100477.41;;;10.68;72.88
60489;BME280;46331;49.252;8.904;2023-02-17T03:36:54;100466.56;;;10.70;73.20
60489;BME280;46331;49.252;8.904;2023-02-17T03:37:35;100475.25;;;10.59;73.33
60489;BME280;46331;49.252;8.904;2023-02-17T03:38:16;100475.03;;;10.60;73.37
60489;BME280;46331;49.252;8.904;2023-02-17T03:38:56;100485.22;;;10.63;73.38
60489;BME280;46331;49.252;8.904;2023-02-17T03:39:39;100479.63;;;10.71;73.27
60489;BME280;46331;49.252;8.904;2023-02-17T03:40:20;100481.38;;;10.59;73.73
60489;BME280;46331;49.252;8.904;2023-02-17T03:41:00;100471.88;;;10.70;73.10
60489;BME280;46331;49.252;8.904;2023-02-17T03:41:41;100485.56;;;10.67;73.40
60489;BME280;46331;49.252;8.904;2023-02-17T03:42:22;100483.13;;;10.65;73.51
60489;BME280;46331;49.252;8.904;2023-02-17T03:43:02;100490.50;;;10.63;73.52
60489;BME280;46331;49.252;8.904;2023-02-17T03:43:43;100486.66;;;10.59;73.60
60489;BME280;46331;49.252;8.904;2023-02-17T03:44:23;100479.25;;;10.68;73.01
60489;BME280;46331;49.252;8.904;2023-02-17T03:45:04;100483.53;;;10.69;73.06
60489;BME280;46331;49.252;8.904;2023-02-17T03:45:45;100478.75;;;10.78;72.70
60489;BME280;46331;49.252;8.904;2023-02-17T03:46:25;100475.50;;;10.76;72.89
60489;BME280;46331;49.252;8.904;2023-02-17T03:47:06;100484.03;;;10.78;72.84
60489;BME280;46331;49.252;8.904;2023-02-17T03:47:46;100478.06;;;10.64;73.05
60489;BME280;46331;49.252;8.904;2023-02-17T03:48:27;100469.28;;;10.63;73.54
60489;BME280;46331;49.252;8.904;2023-02-17T03:49:07;100479.53;;;10.60;73.32
60489;BME280;46331;49.252;8.904;2023-02-17T03:49:49;100480.44;;;10.72;73.27
60489;BME280;46331;49.252;8.904;2023-02-17T03:50:30;100464.13;;;10.68;73.33
60489;BME280;46331;49.252;8.904;2023-02-17T03:51:12;100483.75;;;10.67;73.26
60489;BME280;46331;49.252;8.904;2023-02-17T03:51:53;100470.63;;;10.72;72.78
60489;BME280;46331;49.252;8.904;2023-02-17T03:52:33;100474.25;;;10.78;72.95
60489;BME280;46331;49.252;8.904;2023-02-17T03:53:14;100469.97;;;10.77;72.94
60489;BME280;46331;49.252;8.904;2023-02-17T03:53:54;100469.41;;;10.75;72.73
60489;BME280;46331;49.252;8.904;2023-02-17T03:54:35;100476.09;;;10.78;72.24
60489;BME280;46331;49.252;8.904;2023-02-17T03:55:15;100473.59;;;10.64;73.27
60489;BME280;46331;49.252;8.904;2023-02-17T03:55:56;100476.22;;;10.64;73.40
60489;BME280;46331;49.252;8.904;2023-02-17T03:56:37;100469.44;;;10.68;73.19
60489;BME280;46331;49.252;8.904;2023-02-17T03:57:17;100481.16;;;10.61;72.59
60489;BME280;46331;49.252;8.904;2023-02-17T03:57:58;100475.69;;;10.55;73.35
60489;BME280;46331;49.252;8.904;2023-02-17T03:58:39;100474.00;;;10.61;73.73
60489;BME280;46331;49.252;8.904;2023-02-17T03:59:20;100468.94;;;10.60;72.88
60489;BME280;46331;49.252;8.904;2023-02-17T04:00:01;100472.47;;;10.53;73.01
60489;BME280;46331;49.252;8.904;2023-02-17T04:00:53;100465.66;;;10.58;73.32
60489;BME280;46331;49.252;8.904;2023-02-17T04:01:33;100473.59;;;10.64;73.18
60489;BME280;46331;49.252;8.904;2023-02-17T04:02:14;100462.00;;;10.59;73.47
60489;BME280;46331;49.252;8.904;2023-02-17T04:02:55;100464.44;;;10.60;73.46
60489;BME280;46331;49.252;8.904;2023-02-17T04:03:37;100469.59;;;10.55;73.62
60489;BME280;46331;49.252;8.904;2023-02-17T04:04:17;100472.03;;;10.57;73.01
60489;BME280;46331;49.252;8.904;2023-02-17T04:04:58;100468.28;;;10.64;73.35
60489;BME280;46331;49.252;8.904;2023-02-17T04:05:39;100479.03;;;10.44;73.79
60489;BME280;46331;49.252;8.904;2023-02-17T04:06:19;100467.34;;;10.52;73.72
60489;BME280;46331;49.252;8.904;2023-02-17T04:07:00;100470.16;;;10.57;73.51
60489;BME280;46331;49.252;8.904;2023-02-17T04:07:40;100471.63;;;10.53;73.73
60489;BME280;46331;49.252;8.904;2023-02-17T04:08:21;100477.75;;;10.53;73.53
60489;BME280;46331;49.252;8.904;2023-02-17T04:09:02;100476.88;;;10.60;73.72
60489;BME280;46331;49.252;8.904;2023-02-17T04:09:43;100471.06;;;10.69;73.03
60489;BME280;46331;49.252;8.904;2023-02-17T04:10:23;100474.31;;;10.71;72.92